Time;durP1;ratioP1;P1;durP2;ratioP2;P2;SDS_P1;SDS_P2;PMS_P1;PMS_P2;Temp;Humidity;BMP_temperature;BMP_pressure;BME280_temperature;BME280_humidity;BME280_pressure;Samples;Min_cycle;Max_cycle;Signal;HPM_P1;HPM_P2
2022/10/14 00:00:09;;;;;;;13.63;9.03;;;15.10;99.90;;;;;;20911536;28;20231;-73
2022/10/14 00:10:11;;;;;;;13.60;8.77;;;15.10;99.90;;;;;;20910488;28;20230;-74
2022/10/14 00:20:12;;;;;;;13.40;9.00;;;15.10;99.90;;;;;;20906778;28;20695;-75
2022/10/14 00:30:14;;;;;;;16.37;9.10;;;15.10;99.90;;;;;;20910219;28;20646;-75
2022/10/14 00:40:16;;;;;;;15.87;9.27;;;15.10;99.90;;;;;;20924862;28;20571;-71
2022/10/14 00:50:19;;;;;;;13.00;9.80;;;15.10;99.90;;;;;;20923998;28;20686;-73
2022/10/14 01:00:21;;;;;;;19.80;10.13;;;15.10;99.90;;;;;;20923636;28;20236;-72
2022/10/14 01:10:28;;;;;;;12.27;8.80;;;15.10;99.90;;;;;;20922271;28;20239;-72
2022/10/14 01:20:54;;;;;;;15.53;8.80;;;15.20;99.90;;;;;;20922508;28;20233;-71
2022/10/14 01:31:11;;;;;;;14.50;8.90;;;15.20;99.90;;;;;;20922104;28;20222;-72
2022/10/14 01:41:24;;;;;;;13.27;8.77;;;15.20;99.90;;;;;;20920799;28;20245;-71
2022/10/14 01:51:51;;;;;;;18.80;9.57;;;15.20;99.90;;;;;;20919136;28;20203;-72
2022/10/14 02:01:52;;;;;;;13.20;8.40;;;15.20;99.90;;;;;;20918554;28;20235;-71
2022/10/14 02:12:02;;;;;;;12.30;8.60;;;15.20;99.90;;;;;;20917650;28;20311;-72
2022/10/14 02:22:15;;;;;;;11.20;8.53;;;15.20;99.90;;;;;;20913675;28;20232;-72
2022/10/14 02:32:19;;;;;;;13.50;8.43;;;15.20;99.90;;;;;;20913334;28;20212;-71
2022/10/14 02:42:21;;;;;;;10.83;8.93;;;15.20;99.90;;;;;;20915597;28;20235;-72
2022/10/14 02:52:24;;;;;;;15.97;9.57;;;15.20;99.90;;;;;;20913811;28;20247;-72
2022/10/14 03:02:25;;;;;;;16.53;9.40;;;15.10;99.90;;;;;;20913562;28;20281;-73
2022/10/14 03:12:27;;;;;;;12.13;9.47;;;15.10;99.90;;;;;;20913098;28;20281;-72
2022/10/14 03:22:30;;;;;;;22.23;9.73;;;15.10;99.90;;;;;;20912428;28;20678;-72
2022/10/14 03:32:32;;;;;;;19.87;10.40;;;15.10;99.90;;;;;;20911875;28;20575;-71
2022/10/14 03:42:34;;;;;;;15.73;10.03;;;15.00;99.90;;;;;;20910853;28;20562;-73
2022/10/14 03:52:35;;;;;;;17.73;11.07;;;15.00;99.90;;;;;;20911303;28;20689;-72
2022/10/14 04:02:37;;;;;;;16.40;10.97;;;14.90;99.90;;;;;;20910780;28;20212;-72
2022/10/14 04:12:39;;;;;;;18.97;12.10;;;14.80;99.90;;;;;;20926473;28;20234;-73
2022/10/14 04:22:41;;;;;;;16.27;11.13;;;14.70;99.90;;;;;;20889050;28;20624;-72
2022/10/14 04:32:42;;;;;;;25.30;10.87;;;14.70;99.90;;;;;;20842024;28;20209;-71
2022/10/14 04:42:45;;;;;;;17.80;11.33;;;14.70;99.90;;;;;;20845816;28;20585;-75
2022/10/14 04:52:47;;;;;;;19.03;11.30;;;14.60;99.90;;;;;;20899173;28;20266;-71
2022/10/14 05:02:49;;;;;;;17.37;10.67;;;14.60;99.90;;;;;;20907610;28;20212;-73
2022/10/14 05:12:51;;;;;;;17.00;11.37;;;14.60;99.90;;;;;;20840824;28;20236;-72
2022/10/14 05:22:52;;;;;;;20.27;12.30;;;14.60;99.90;;;;;;20838060;28;20246;-76
2022/10/14 05:32:54;;;;;;;22.67;11.53;;;15.30;99.90;;;;;;20841237;28;20212;-73
2022/10/14 05:42:56;;;;;;;19.57;11.37;;;14.70;99.90;;;;;;20880657;28;20656;-73
2022/10/14 05:53:00;;;;;;;14.70;10.80;;;14.70;99.90;;;;;;20914549;28;20688;-71
2022/10/14 06:03:02;;;;;;;19.60;11.40;;;14.80;99.90;;;;;;20916342;28;20547;-72
2022/10/14 06:13:03;;;;;;;19.40;12.27;;;14.80;99.90;;;;;;20880176;28;20240;-73
2022/10/14 06:23:05;;;;;;;16.57;11.97;;;14.80;99.90;;;;;;20830808;28;20626;-72
2022/10/14 06:33:07;;;;;;;24.37;11.73;;;14.90;99.90;;;;;;20830216;28;20278;-74
2022/10/14 06:43:08;;;;;;;21.37;12.20;;;15.00;99.90;;;;;;20830876;28;20725;-72
2022/10/14 06:53:10;;;;;;;21.13;12.67;;;15.00;99.90;;;;;;20869291;28;20225;-74
2022/10/14 07:03:12;;;;;;;20.70;11.87;;;15.10;99.90;;;;;;20864072;28;20270;-74
2022/10/14 07:13:13;;;;;;;22.40;12.37;;;15.20;99.90;;;;;;20915394;28;20620;-73
2022/10/14 07:23:15;;;;;;;17.93;11.93;;;15.30;99.90;;;;;;20914308;28;20211;-73
2022/10/14 07:33:17;;;;;;;27.53;11.60;;;15.40;99.90;;;;;;20911237;28;20294;-73
2022/10/14 07:43:18;;;;;;;19.03;13.67;;;15.40;99.90;;;;;;20920070;28;20204;-73
2022/10/14 07:53:21;;;;;;;22.33;14.13;;;15.50;99.90;;;;;;20927125;28;20232;-72
2022/10/14 08:03:24;;;;;;;18.73;12.30;;;15.70;99.90;;;;;;20926618;28;20303;-74
2022/10/14 08:13:26;;;;;;;20.80;12.20;;;15.80;99.90;;;;;;20843500;28;20604;-73
2022/10/14 08:23:29;;;;;;;21.87;11.90;;;15.90;99.90;;;;;;20843118;28;20237;-74
2022/10/14 08:33:30;;;;;;;15.87;9.53;;;16.10;99.90;;;;;;20840679;28;20226;-72
2022/10/14 08:43:49;;;;;;;19.80;10.27;;;16.20;99.90;;;;;;20840648;28;20200;-72
2022/10/14 08:53:57;;;;;;;14.13;9.60;;;16.40;99.90;;;;;;20839180;28;20291;-71
2022/10/14 09:04:03;;;;;;;13.90;8.00;;;16.60;99.90;;;;;;20840089;28;20668;-72
2022/10/14 09:14:08;;;;;;;11.43;6.63;;;16.70;99.90;;;;;;20838674;28;20247;-73
2022/10/14 09:24:17;;;;;;;9.57;5.60;;;16.90;99.90;;;;;;20837467;28;20240;-72
2022/10/14 09:34:24;;;;;;;8.00;5.23;;;16.90;99.90;;;;;;20836350;28;20339;-73
2022/10/14 09:44:26;;;;;;;7.80;4.80;;;16.90;99.90;;;;;;20836704;28;20249;-72
2022/10/14 09:54:30;;;;;;;9.60;5.00;;;17.10;99.90;;;;;;20835859;28;20232;-72
2022/10/14 10:04:46;;;;;;;9.00;4.67;;;17.10;99.90;;;;;;20834595;28;20583;-72
2022/10/14 10:14:57;;;;;;;7.10;3.93;;;17.20;99.90;;;;;;20833986;28;20250;-72
2022/10/14 10:25:05;;;;;;;9.87;4.17;;;17.40;99.90;;;;;;20833340;28;20215;-72
2022/10/14 10:35:27;;;;;;;7.07;4.30;;;17.50;99.90;;;;;;20841100;28;20693;-72
2022/10/14 10:45:53;;;;;;;10.10;4.83;;;17.50;99.90;;;;;;20864043;28;20204;-72
2022/10/14 10:56:12;;;;;;;8.53;4.10;;;17.60;99.90;;;;;;20862797;28;20626;-71
2022/10/14 11:17:10;;;;;;;9.00;4.67;;;17.70;99.70;;;;;;20910128;28;20249;-69
2022/10/14 11:27:41;;;;;;;7.93;3.73;;;17.80;99.50;;;;;;20909717;28;20221;-72
2022/10/14 11:38:08;;;;;;;7.73;3.73;;;17.80;99.20;;;;;;20832309;28;20249;-71
2022/10/14 11:48:33;;;;;;;17.27;7.37;;;17.80;99.00;;;;;;20827713;28;20251;-71
2022/10/14 11:58:37;;;;;;;12.60;6.27;;;17.80;98.90;;;;;;20826216;28;20246;-71
2022/10/14 12:08:57;;;;;;;11.77;6.10;;;17.70;98.80;;;;;;20827098;28;20288;-73
2022/10/14 12:18:59;;;;;;;8.27;4.60;;;17.80;98.70;;;;;;20825368;28;20241;-71
2022/10/14 12:29:01;;;;;;;8.70;5.37;;;17.90;98.40;;;;;;20839856;28;20203;-71
2022/10/14 12:39:16;;;;;;;13.17;6.43;;;17.90;98.10;;;;;;20925526;28;20239;-71
2022/10/14 12:49:22;;;;;;;9.93;5.37;;;17.90;97.90;;;;;;20922567;28;20207;-70
2022/10/14 12:59:37;;;;;;;11.17;4.00;;;17.90;97.50;;;;;;20921343;28;20241;-71
2022/10/14 13:09:39;;;;;;;7.43;3.00;;;17.90;97.60;;;;;;20921505;28;20237;-69
2022/10/14 13:19:43;;;;;;;10.80;4.00;;;17.90;97.00;;;;;;20919361;28;20243;-70
2022/10/14 13:30:07;;;;;;;10.00;3.70;;;17.90;96.90;;;;;;20918460;28;20214;-69
2022/10/14 13:40:33;;;;;;;4.97;3.10;;;17.90;96.90;;;;;;20919025;28;20254;-68
2022/10/14 13:50:37;;;;;;;8.90;3.17;;;17.80;96.90;;;;;;20912584;28;20205;-67
2022/10/14 14:00:43;;;;;;;5.67;2.90;;;17.90;97.10;;;;;;20833629;28;20239;-67
2022/10/14 14:11:00;;;;;;;7.77;3.03;;;17.90;97.20;;;;;;20834471;28;20776;-68
2022/10/14 14:21:21;;;;;;;5.50;3.20;;;17.90;97.50;;;;;;20833866;28;20602;-69
2022/10/14 14:31:25;;;;;;;6.70;3.47;;;17.80;97.90;;;;;;20833128;28;20289;-71
2022/10/14 14:41:52;;;;;;;4.73;3.33;;;17.70;98.40;;;;;;20832770;28;20657;-71
2022/10/14 14:51:55;;;;;;;9.27;3.87;;;17.50;99.00;;;;;;20830509;28;20206;-74
2022/10/14 15:01:58;;;;;;;6.03;3.90;;;17.40;99.30;;;;;;20829732;28;20237;-76
2022/10/14 15:12:17;;;;;;;9.23;4.10;;;17.40;99.70;;;;;;20830819;28;20349;-74
2022/10/14 15:22:28;;;;;;;8.63;3.73;;;17.30;99.90;;;;;;20830557;28;20691;-71
2022/10/14 15:32:31;;;;;;;11.73;4.07;;;17.20;99.90;;;;;;20829470;28;20282;-74
2022/10/14 15:42:32;;;;;;;7.63;4.57;;;17.10;99.90;;;;;;20829479;28;20261;-74
2022/10/14 15:52:34;;;;;;;7.70;4.87;;;17.10;99.90;;;;;;20827938;28;20209;-75
2022/10/14 16:02:36;;;;;;;6.93;4.80;;;17.10;99.90;;;;;;20831493;28;20244;-75
2022/10/14 16:12:38;;;;;;;8.40;5.20;;;17.00;99.90;;;;;;20843934;28;20240;-75
2022/10/14 16:22:39;;;;;;;10.00;5.43;;;17.00;99.90;;;;;;20843744;28;20236;-71
2022/10/14 16:32:41;;;;;;;10.67;4.77;;;16.90;99.90;;;;;;20843228;28;20215;-76
2022/10/14 16:42:43;;;;;;;7.73;4.47;;;16.90;99.90;;;;;;20843050;28;20236;-77
2022/10/14 17:03:06;;;;;;;11.30;4.83;;;16.80;99.90;;;;;;20895135;28;20233;-77
2022/10/14 17:13:08;;;;;;;10.60;5.20;;;16.70;99.90;;;;;;20970632;28;20649;-80
2022/10/14 17:23:09;;;;;;;15.60;6.27;;;16.70;99.90;;;;;;20946105;28;20269;-71
2022/10/14 17:33:11;;;;;;;8.50;5.90;;;16.70;99.90;;;;;;21001913;28;20269;-69
2022/10/14 17:43:13;;;;;;;7.67;5.93;;;16.70;99.90;;;;;;20974944;28;20611;-67
2022/10/14 17:53:15;;;;;;;10.33;6.07;;;16.70;99.90;;;;;;20951947;28;20205;-67
2022/10/14 18:03:17;;;;;;;11.43;5.53;;;16.60;99.90;;;;;;20966775;28;20244;-67
2022/10/14 18:13:19;;;;;;;10.70;5.97;;;16.60;99.90;;;;;;20898567;28;20702;-65
2022/10/14 18:23:20;;;;;;;9.83;5.70;;;16.50;99.90;;;;;;20894143;28;20243;-69
2022/10/14 18:33:22;;;;;;;9.23;4.93;;;16.50;99.90;;;;;;20831352;28;20271;-70
2022/10/14 18:43:24;;;;;;;5.87;4.80;;;16.50;99.90;;;;;;20831439;28;20296;-69
2022/10/14 18:53:27;;;;;;;9.20;4.90;;;16.50;99.90;;;;;;20832786;28;20585;-70
2022/10/14 19:03:28;;;;;;;6.60;3.80;;;16.50;99.90;;;;;;20902362;28;20231;-71
2022/10/14 19:13:31;;;;;;;3.10;2.10;;;16.50;99.90;;;;;;20987389;28;20235;-70
2022/10/14 19:23:34;;;;;;;3.27;1.50;;;16.40;99.90;;;;;;20994310;28;20239;-70
2022/10/14 19:33:38;;;;;;;2.57;1.70;;;16.40;99.90;;;;;;20993136;28;20247;-70
2022/10/14 19:43:39;;;;;;;2.17;1.73;;;16.30;99.90;;;;;;20992606;28;20567;-71
2022/10/14 19:53:41;;;;;;;2.17;1.60;;;16.20;99.90;;;;;;20993142;28;20211;-71
2022/10/14 20:03:43;;;;;;;3.00;2.03;;;16.20;99.90;;;;;;20992486;28;20234;-71
2022/10/14 20:13:45;;;;;;;5.90;2.17;;;16.20;99.90;;;;;;20991704;28;20261;-70
2022/10/14 20:23:46;;;;;;;3.20;2.40;;;16.20;99.90;;;;;;20991596;28;20718;-70
2022/10/14 20:33:48;;;;;;;3.17;2.57;;;16.20;99.90;;;;;;20991122;28;20260;-70
2022/10/14 20:43:52;;;;;;;5.63;3.00;;;16.20;99.90;;;;;;20990449;28;20262;-70
2022/10/14 20:53:59;;;;;;;5.03;3.00;;;16.20;99.90;;;;;;21002208;28;20231;-71
2022/10/14 21:04:06;;;;;;;7.13;4.63;;;16.20;99.90;;;;;;20950916;28;20208;-70
2022/10/14 21:14:09;;;;;;;2.30;2.10;;;16.20;99.90;;;;;;20918211;28;20227;-71
2022/10/14 21:24:13;;;;;;;4.70;2.67;;;16.10;99.90;;;;;;20921754;28;20209;-72
2022/10/14 21:34:15;;;;;;;9.27;3.10;;;16.10;99.90;;;;;;20918899;28;20230;-70
2022/10/14 21:44:19;;;;;;;3.50;2.10;;;16.10;99.90;;;;;;20917985;28;20219;-69
2022/10/14 21:54:21;;;;;;;4.47;1.60;;;16.10;99.90;;;;;;20917484;28;20262;-70
2022/10/14 22:04:25;;;;;;;11.93;2.60;;;16.10;99.90;;;;;;20916054;28;20210;-72
2022/10/14 22:14:27;;;;;;;2.10;1.73;;;16.10;99.90;;;;;;20915591;28;20298;-69
2022/10/14 22:24:29;;;;;;;2.03;1.70;;;16.00;99.90;;;;;;20914994;28;20209;-74
2022/10/14 22:34:30;;;;;;;2.30;2.00;;;15.90;99.90;;;;;;20914294;28;20562;-72
2022/10/14 22:44:32;;;;;;;6.53;3.00;;;15.90;99.90;;;;;;20913382;28;20679;-72
2022/10/14 22:54:34;;;;;;;6.23;2.50;;;15.90;99.90;;;;;;20913020;28;20682;-72
2022/10/14 23:04:35;;;;;;;3.83;2.20;;;15.90;99.90;;;;;;20865278;28;20267;-73
2022/10/14 23:14:37;;;;;;;6.03;3.03;;;15.90;99.90;;;;;;20826207;28;20239;-72
2022/10/14 23:24:39;;;;;;;3.63;2.70;;;15.80;99.90;;;;;;20828554;28;20220;-73
2022/10/14 23:34:40;;;;;;;3.30;2.93;;;15.90;99.90;;;;;;20827685;28;20283;-73
2022/10/14 23:44:42;;;;;;;3.23;2.60;;;15.80;99.90;;;;;;20830353;28;20201;-70
2022/10/14 23:54:44;;;;;;;4.50;2.90;;;15.80;99.90;;;;;;20829122;28;20699;-69
